createdAt,value
2023-04-22T00:00:12.734Z,14.55
2023-04-22T00:02:39.476Z,14.55
2023-04-22T00:05:06.366Z,14.50
2023-04-22T00:07:33.169Z,14.43
2023-04-22T00:09:59.761Z,14.44
2023-04-22T00:12:26.358Z,14.25
2023-04-22T00:14:53.184Z,14.23
2023-04-22T00:17:19.798Z,13.99
2023-04-22T00:19:47.291Z,14.03
2023-04-22T00:22:13.894Z,14.02
2023-04-22T00:24:41.514Z,13.94
2023-04-22T00:27:08.167Z,13.47
2023-04-22T00:29:34.866Z,13.53
2023-04-22T00:32:01.467Z,13.75
2023-04-22T00:34:28.059Z,13.58
2023-04-22T00:36:54.662Z,13.61
2023-04-22T00:39:21.263Z,13.54
2023-04-22T00:41:47.857Z,13.45
2023-04-22T00:44:14.457Z,13.37
2023-04-22T00:46:41.150Z,13.55
2023-04-22T00:49:07.945Z,13.64
2023-04-22T00:51:34.669Z,13.59
2023-04-22T00:54:01.268Z,13.66
2023-04-22T00:56:27.831Z,13.56
2023-04-22T00:58:54.529Z,13.59
2023-04-22T01:01:21.150Z,13.54
2023-04-22T01:03:47.992Z,13.51
2023-04-22T01:06:14.645Z,13.35
2023-04-22T01:08:41.252Z,13.39
2023-04-22T01:11:07.885Z,13.40
2023-04-22T01:13:34.477Z,13.42
2023-04-22T01:16:01.085Z,13.41
2023-04-22T01:18:28.665Z,13.40
2023-04-22T01:20:55.250Z,13.28
2023-04-22T01:23:21.935Z,13.36
2023-04-22T01:25:48.557Z,13.38
2023-04-22T01:28:15.152Z,13.27
2023-04-22T01:30:41.739Z,13.14
2023-04-22T01:33:08.354Z,12.91
2023-04-22T01:35:35.009Z,12.92
2023-04-22T01:38:01.596Z,12.96
2023-04-22T01:40:28.324Z,12.95
2023-04-22T01:42:54.909Z,12.98
2023-04-22T01:45:21.503Z,12.76
2023-04-22T01:47:48.159Z,12.86
2023-04-22T01:50:14.801Z,12.80
2023-04-22T01:52:41.371Z,12.62
2023-04-22T01:55:07.984Z,12.58
2023-04-22T01:57:34.596Z,12.55
2023-04-22T02:00:01.237Z,12.63
2023-04-22T02:02:27.944Z,12.69
2023-04-22T02:04:54.618Z,12.71
2023-04-22T02:07:21.274Z,12.65
2023-04-22T02:09:50.218Z,12.60
2023-04-22T02:12:17.493Z,12.55
2023-04-22T02:14:44.069Z,12.43
2023-04-22T02:17:10.656Z,12.34
2023-04-22T02:19:37.471Z,12.13
2023-04-22T02:22:04.485Z,12.15
2023-04-22T02:24:31.099Z,12.21
2023-04-22T02:27:00.352Z,12.18
2023-04-22T02:29:26.938Z,12.29
2023-04-22T02:31:53.603Z,12.40
2023-04-22T02:34:20.296Z,12.14
2023-04-22T02:36:46.922Z,11.98
2023-04-22T02:39:13.475Z,12.09
2023-04-22T02:41:40.058Z,12.29
2023-04-22T02:44:06.728Z,12.26
2023-04-22T02:46:33.495Z,12.17
2023-04-22T02:49:00.221Z,12.15
2023-04-22T02:51:26.836Z,12.00
2023-04-22T02:53:53.498Z,12.11
2023-04-22T02:56:20.140Z,12.03
2023-04-22T02:58:46.711Z,11.99
2023-04-22T03:01:13.343Z,12.00
2023-04-22T03:03:40.280Z,12.06
2023-04-22T03:06:07.191Z,11.93
2023-04-22T03:08:33.940Z,11.86
2023-04-22T03:11:00.726Z,11.83
2023-04-22T03:13:27.324Z,11.90
2023-04-22T03:15:53.907Z,11.86
2023-04-22T03:18:20.481Z,11.69
2023-04-22T03:20:47.079Z,11.78
2023-04-22T03:23:13.632Z,11.75
2023-04-22T03:25:40.222Z,11.53
2023-04-22T03:28:06.813Z,11.64
2023-04-22T03:30:33.421Z,11.75
2023-04-22T03:33:00.022Z,11.70
2023-04-22T03:35:26.638Z,11.76
2023-04-22T03:37:53.484Z,11.75
2023-04-22T03:40:20.081Z,11.74
2023-04-22T03:42:46.802Z,11.59
2023-04-22T03:45:13.435Z,11.72
2023-04-22T03:47:40.080Z,11.57
2023-04-22T03:50:06.729Z,11.71
2023-04-22T03:52:33.329Z,11.71
2023-04-22T03:54:59.902Z,11.75
2023-04-22T03:57:26.470Z,11.66
2023-04-22T03:59:53.030Z,11.53
2023-04-22T04:02:19.738Z,11.62
2023-04-22T04:04:46.971Z,11.75
2023-04-22T04:07:13.874Z,11.72
2023-04-22T04:09:40.690Z,11.66
2023-04-22T04:12:07.567Z,11.62
2023-04-22T04:14:34.168Z,11.45
2023-04-22T04:17:00.716Z,11.58
2023-04-22T04:19:27.413Z,11.51
2023-04-22T04:21:54.037Z,11.65
2023-04-22T04:24:20.646Z,11.38
2023-04-22T04:26:47.366Z,11.32
2023-04-22T04:29:14.141Z,11.20
2023-04-22T04:31:40.814Z,11.25
2023-04-22T04:34:07.432Z,11.53
2023-04-22T04:36:34.007Z,11.47
2023-04-22T04:39:00.653Z,11.54
2023-04-22T04:41:27.253Z,11.72
2023-04-22T04:43:53.880Z,11.82
2023-04-22T04:46:20.454Z,11.89
2023-04-22T04:48:47.123Z,12.02
2023-04-22T04:51:13.687Z,12.09
2023-04-22T04:53:40.319Z,12.14
2023-04-22T04:56:06.926Z,12.43
2023-04-22T04:58:33.516Z,12.57
2023-04-22T05:01:00.129Z,12.64
2023-04-22T05:03:27.043Z,12.55
2023-04-22T05:05:53.798Z,12.93
2023-04-22T05:08:20.454Z,13.09
2023-04-22T05:10:47.074Z,13.06
2023-04-22T05:13:13.730Z,13.13
2023-04-22T05:15:40.394Z,13.27
2023-04-22T05:18:07.103Z,13.53
2023-04-22T05:20:35.886Z,13.85
2023-04-22T05:23:02.820Z,14.16
2023-04-22T05:25:29.444Z,14.18
2023-04-22T05:27:56.011Z,14.42
2023-04-22T05:30:22.626Z,14.26
2023-04-22T05:32:49.304Z,14.46
2023-04-22T05:35:15.925Z,14.64
2023-04-22T05:37:44.576Z,14.81
2023-04-22T05:40:11.150Z,14.88
2023-04-22T05:42:37.764Z,15.13
2023-04-22T05:45:04.633Z,15.37
2023-04-22T05:47:31.291Z,15.49
2023-04-22T05:49:57.883Z,15.56
2023-04-22T05:52:24.436Z,15.80
2023-04-22T05:54:51.030Z,16.00
2023-04-22T05:57:17.588Z,15.87
2023-04-22T05:59:44.296Z,15.98
2023-04-22T06:02:12.107Z,16.24
2023-04-22T06:04:39.335Z,16.50
2023-04-22T06:07:06.180Z,16.79
2023-04-22T06:09:32.765Z,16.96
2023-04-22T06:11:59.362Z,16.85
2023-04-22T06:14:25.993Z,17.02
2023-04-22T06:16:52.598Z,16.79
2023-04-22T06:19:19.215Z,17.06
2023-04-22T06:21:47.710Z,17.29
2023-04-22T06:24:14.289Z,17.06
2023-04-22T06:26:40.888Z,17.00
2023-04-22T06:29:07.524Z,17.22
2023-04-22T06:31:34.168Z,17.47
2023-04-22T06:34:00.803Z,17.87
2023-04-22T06:36:29.737Z,18.19
2023-04-22T06:38:57.150Z,18.00
2023-04-22T06:41:23.720Z,18.14
2023-04-22T06:43:50.378Z,18.36
2023-04-22T06:46:17.004Z,18.27
2023-04-22T06:48:43.630Z,18.34
2023-04-22T06:51:10.367Z,18.53
2023-04-22T06:53:36.921Z,18.41
2023-04-22T06:56:03.525Z,18.97
2023-04-22T06:58:30.093Z,18.58
2023-04-22T07:00:56.710Z,18.70
2023-04-22T07:03:23.509Z,19.13
2023-04-22T07:05:50.331Z,19.22
2023-04-22T07:08:16.949Z,18.98
2023-04-22T07:10:43.734Z,18.52
2023-04-22T07:13:10.330Z,18.90
2023-04-22T07:15:36.896Z,19.26
2023-04-22T07:18:03.518Z,19.55
2023-04-22T07:20:30.170Z,19.97
2023-04-22T07:22:56.777Z,20.22
2023-04-22T07:25:23.385Z,20.24
2023-04-22T07:27:50.014Z,20.37
2023-04-22T07:30:16.604Z,20.34
2023-04-22T07:32:43.225Z,20.40
2023-04-22T07:35:09.928Z,20.12
2023-04-22T07:37:36.525Z,20.64
2023-04-22T07:40:03.114Z,20.65
2023-04-22T07:42:29.662Z,20.74
2023-04-22T07:44:56.259Z,20.55
2023-04-22T07:47:22.864Z,20.69
2023-04-22T07:49:49.557Z,20.77
2023-04-22T07:52:16.110Z,20.24
2023-04-22T07:54:42.716Z,20.52
2023-04-22T07:57:09.295Z,20.10
2023-04-22T07:59:35.870Z,20.93
2023-04-22T08:02:02.580Z,21.18
2023-04-22T08:04:29.596Z,21.30
2023-04-22T08:06:56.338Z,20.71
2023-04-22T08:09:22.939Z,21.14
2023-04-22T08:11:49.510Z,21.72
2023-04-22T08:14:16.093Z,20.87
2023-04-22T08:16:42.684Z,20.97
2023-04-22T08:19:09.316Z,20.94
2023-04-22T08:21:35.962Z,21.58
2023-04-22T08:24:02.554Z,22.25
2023-04-22T08:26:29.158Z,22.26
2023-04-22T08:28:55.798Z,21.56
2023-04-22T08:31:22.406Z,21.20
2023-04-22T08:33:49.034Z,22.09
2023-04-22T08:36:15.586Z,22.48
2023-04-22T08:41:08.769Z,22.63
2023-04-22T08:43:35.504Z,21.64
2023-04-22T08:46:02.094Z,21.52
2023-04-22T08:48:28.964Z,21.66
2023-04-22T08:50:55.518Z,22.76
2023-04-22T08:53:24.340Z,22.69
2023-04-22T08:55:51.363Z,23.16
2023-04-22T08:58:17.933Z,23.31
2023-04-22T09:00:45.145Z,23.54
2023-04-22T09:03:11.758Z,23.50
2023-04-22T09:05:38.459Z,23.95
2023-04-22T09:08:05.378Z,23.96
2023-04-22T09:10:33.956Z,23.95
2023-04-22T09:13:00.866Z,23.85
2023-04-22T09:15:28.111Z,23.88
2023-04-22T09:17:54.818Z,24.32
2023-04-22T09:20:21.602Z,23.88
2023-04-22T09:22:48.161Z,23.11
2023-04-22T09:25:14.770Z,23.44
2023-04-22T09:27:41.395Z,23.86
2023-04-22T09:30:08.004Z,22.46
2023-04-22T09:32:34.691Z,21.54
2023-04-22T09:35:01.338Z,22.65
2023-04-22T09:37:38.975Z,23.37
2023-04-22T09:40:09.482Z,23.11
2023-04-22T09:42:36.068Z,22.69
2023-04-22T09:45:02.686Z,23.52
2023-04-22T09:47:29.286Z,24.16
2023-04-22T09:49:55.933Z,24.80
2023-04-22T09:52:22.490Z,23.91
2023-04-22T09:54:49.103Z,23.94
2023-04-22T09:57:15.656Z,24.76
2023-04-22T09:59:42.446Z,24.50
2023-04-22T10:02:09.573Z,23.48
2023-04-22T10:04:36.450Z,24.67
2023-04-22T10:07:03.025Z,25.64
2023-04-22T10:09:29.599Z,25.76
2023-04-22T10:11:56.169Z,25.68
2023-04-22T10:14:22.796Z,25.97
2023-04-22T10:16:49.652Z,25.06
2023-04-22T10:19:16.654Z,23.64
2023-04-22T10:21:43.332Z,23.43
2023-04-22T10:24:09.910Z,24.18
2023-04-22T10:26:36.546Z,23.94
2023-04-22T10:29:03.098Z,25.01
2023-04-22T10:31:29.761Z,25.02
2023-04-22T10:33:56.609Z,24.55
2023-04-22T10:36:23.227Z,24.52
2023-04-22T10:38:49.843Z,25.65
2023-04-22T10:41:16.398Z,26.37
2023-04-22T10:43:42.977Z,26.41
2023-04-22T10:46:10.387Z,26.40
2023-04-22T10:48:36.990Z,25.68
2023-04-22T10:51:03.709Z,25.96
2023-04-22T10:53:30.274Z,25.94
2023-04-22T10:55:56.857Z,26.21
2023-04-22T10:58:23.442Z,26.69
2023-04-22T11:00:53.954Z,26.06
2023-04-22T11:03:21.319Z,26.62
2023-04-22T11:05:48.079Z,25.87
2023-04-22T11:08:15.057Z,25.01
2023-04-22T11:10:43.595Z,26.34
2023-04-22T11:13:10.528Z,26.96
2023-04-22T11:15:37.102Z,27.29
2023-04-22T11:18:03.727Z,27.32
2023-04-22T11:20:30.346Z,26.99
2023-04-22T11:22:56.919Z,26.52
2023-04-22T11:25:23.506Z,26.22
2023-04-22T11:27:50.121Z,27.35
2023-04-22T11:30:16.694Z,28.23
2023-04-22T11:32:43.344Z,28.56
2023-04-22T11:35:09.979Z,28.30
2023-04-22T11:37:36.544Z,28.04
2023-04-22T11:40:21.717Z,27.90
2023-04-22T11:42:49.773Z,28.47
2023-04-22T11:45:16.411Z,28.92
2023-04-22T11:47:43.064Z,26.93
2023-04-22T11:50:09.653Z,26.87
2023-04-22T11:52:36.309Z,27.09
2023-04-22T11:55:02.991Z,28.07
2023-04-22T11:57:29.913Z,28.13
2023-04-22T11:59:57.396Z,27.46
2023-04-22T12:02:24.121Z,28.16
2023-04-22T12:04:50.800Z,28.90
2023-04-22T12:07:17.466Z,27.10
2023-04-22T12:09:43.976Z,25.65
2023-04-22T12:12:10.788Z,25.70
2023-04-22T12:14:37.413Z,26.23
2023-04-22T12:17:04.154Z,27.58
2023-04-22T12:19:30.801Z,28.30
2023-04-22T12:21:57.393Z,27.65
2023-04-22T12:24:23.943Z,27.87
2023-04-22T12:26:50.552Z,27.70
2023-04-22T12:29:17.140Z,27.13
2023-04-22T12:31:43.823Z,27.87
2023-04-22T12:34:10.539Z,28.72
2023-04-22T12:36:37.145Z,29.36
2023-04-22T12:39:04.585Z,28.52
2023-04-22T12:41:31.168Z,28.11
2023-04-22T12:43:57.851Z,27.61
2023-04-22T12:46:24.495Z,27.66
2023-04-22T12:48:51.153Z,28.39
2023-04-22T12:51:17.750Z,28.24
2023-04-22T12:53:44.322Z,27.61
2023-04-22T12:56:10.950Z,27.35
2023-04-22T12:58:37.522Z,27.23
2023-04-22T13:01:04.267Z,28.21
2023-04-22T13:03:31.101Z,28.74
2023-04-22T13:05:57.798Z,27.56
2023-04-22T13:08:24.483Z,27.52
2023-04-22T13:10:51.216Z,26.81
2023-04-22T13:13:19.373Z,26.98
2023-04-22T13:15:46.281Z,27.99
2023-04-22T13:18:12.891Z,28.71
2023-04-22T13:20:39.588Z,29.37
2023-04-22T13:23:06.184Z,28.24
2023-04-22T13:25:32.779Z,26.73
2023-04-22T13:27:59.403Z,27.36
2023-04-22T13:30:26.021Z,27.49
2023-04-22T13:32:52.764Z,26.95
2023-04-22T13:35:19.372Z,27.76
2023-04-22T13:37:46.130Z,28.62
2023-04-22T13:40:12.956Z,27.83
2023-04-22T13:42:39.807Z,27.46
2023-04-22T13:45:06.427Z,26.54
2023-04-22T13:47:33.162Z,27.29
2023-04-22T13:49:59.796Z,27.79
2023-04-22T13:52:26.422Z,28.26
2023-04-22T13:54:53.327Z,29.37
2023-04-22T13:57:19.941Z,29.56
2023-04-22T13:59:46.538Z,29.32
2023-04-22T14:02:13.140Z,28.47
2023-04-22T14:04:39.761Z,28.70
2023-04-22T14:07:06.322Z,28.99
2023-04-22T14:09:32.986Z,28.83
2023-04-22T14:12:00.207Z,29.02
2023-04-22T14:14:26.795Z,29.18
2023-04-22T14:16:53.439Z,29.78
2023-04-22T14:19:20.078Z,29.69
2023-04-22T14:21:46.689Z,29.93
2023-04-22T14:24:13.293Z,30.31
2023-04-22T14:26:40.007Z,30.57
2023-04-22T14:29:06.584Z,29.37
2023-04-22T14:31:33.219Z,28.65
2023-04-22T14:33:59.838Z,28.11
2023-04-22T14:36:26.398Z,27.58
2023-04-22T14:38:53.037Z,28.13
2023-04-22T14:41:19.653Z,28.85
2023-04-22T14:43:46.238Z,29.66
2023-04-22T14:46:12.993Z,27.92
2023-04-22T14:48:39.766Z,26.46
2023-04-22T14:51:06.378Z,26.32
2023-04-22T14:53:32.957Z,26.80
2023-04-22T14:55:59.601Z,27.91
2023-04-22T14:58:26.168Z,28.46
2023-04-22T15:00:52.784Z,28.59
2023-04-22T15:03:19.472Z,27.90
2023-04-22T15:05:46.190Z,27.39
2023-04-22T15:08:12.789Z,27.39
2023-04-22T15:10:39.393Z,27.86
2023-04-22T15:13:06.260Z,28.58
2023-04-22T15:15:32.876Z,28.87
2023-04-22T15:17:59.547Z,28.89
2023-04-22T15:20:26.190Z,28.96
2023-04-22T15:22:52.769Z,29.20
2023-04-22T15:25:19.343Z,29.67
2023-04-22T15:27:45.941Z,29.23
2023-04-22T15:30:12.662Z,29.53
2023-04-22T15:32:39.385Z,29.30
2023-04-22T15:35:06.078Z,29.16
2023-04-22T15:37:32.737Z,28.93
2023-04-22T15:39:59.345Z,29.27
2023-04-22T15:42:25.978Z,27.61
2023-04-22T15:44:52.703Z,27.18
2023-04-22T15:47:19.380Z,27.25
2023-04-22T15:49:46.012Z,27.71
2023-04-22T15:52:13.535Z,28.21
2023-04-22T15:54:40.559Z,28.53
2023-04-22T15:57:07.123Z,28.59
2023-04-22T15:59:33.700Z,28.71
2023-04-22T16:02:00.376Z,28.82
2023-04-22T16:04:27.269Z,28.48
2023-04-22T16:06:54.151Z,27.92
2023-04-22T16:09:20.709Z,28.29
2023-04-22T16:11:47.314Z,28.46
2023-04-22T16:14:13.927Z,28.60
2023-04-22T16:16:40.598Z,28.64
2023-04-22T16:19:07.203Z,27.72
2023-04-22T16:21:33.832Z,26.35
2023-04-22T16:24:00.481Z,25.59
2023-04-22T16:26:27.143Z,25.40
2023-04-22T16:28:53.719Z,25.26
2023-04-22T16:31:20.368Z,25.85
2023-04-22T16:33:47.019Z,26.18
2023-04-22T16:36:13.610Z,25.32
2023-04-22T16:38:40.213Z,25.27
2023-04-22T16:41:06.914Z,25.56
2023-04-22T16:43:33.522Z,24.61
2023-04-22T16:46:00.323Z,24.40
2023-04-22T16:48:26.942Z,24.55
2023-04-22T16:50:53.782Z,24.85
2023-04-22T16:53:20.380Z,25.06
2023-04-22T16:55:46.965Z,25.27
2023-04-22T16:58:13.629Z,25.47
2023-04-22T17:00:40.238Z,24.72
2023-04-22T17:03:07.022Z,24.76
2023-04-22T17:05:34.474Z,24.84
2023-04-22T17:08:01.089Z,24.37
2023-04-22T17:10:27.657Z,24.12
2023-04-22T17:12:54.256Z,24.20
2023-04-22T17:15:20.836Z,24.02
2023-04-22T17:17:47.493Z,24.18
2023-04-22T17:20:14.191Z,23.94
2023-04-22T17:22:40.774Z,23.44
2023-04-22T17:25:07.383Z,23.22
2023-04-22T17:27:33.982Z,23.09
2023-04-22T17:30:00.600Z,23.41
2023-04-22T17:32:27.248Z,23.41
2023-04-22T17:34:53.875Z,23.55
2023-04-22T17:37:20.462Z,23.42
2023-04-22T17:39:47.044Z,23.71
2023-04-22T17:42:14.477Z,23.85
2023-04-22T17:44:41.486Z,23.99
2023-04-22T17:47:08.418Z,24.06
2023-04-22T17:49:35.043Z,24.04
2023-04-22T17:52:01.703Z,23.82
2023-04-22T17:54:28.301Z,23.86
2023-04-22T17:56:55.424Z,23.65
2023-04-22T17:59:22.128Z,23.76
2023-04-22T18:01:48.816Z,23.45
2023-04-22T18:04:16.545Z,23.09
2023-04-22T18:06:43.340Z,23.10
2023-04-22T18:09:09.992Z,23.14
2023-04-22T18:11:36.613Z,23.05
2023-04-22T18:14:03.252Z,23.08
2023-04-22T18:16:29.893Z,22.99
2023-04-22T18:18:56.780Z,22.95
2023-04-22T18:21:23.365Z,22.86
2023-04-22T18:23:49.999Z,22.78
2023-04-22T18:26:16.667Z,22.49
2023-04-22T18:28:43.268Z,22.38
2023-04-22T18:31:09.886Z,22.27
2023-04-22T18:33:36.622Z,22.13
2023-04-22T18:36:03.205Z,22.17
2023-04-22T18:38:29.774Z,22.08
2023-04-22T18:40:56.406Z,21.92
2023-04-22T18:43:23.029Z,21.76
2023-04-22T18:45:49.665Z,21.79
2023-04-22T18:48:16.451Z,21.65
2023-04-22T18:50:43.067Z,21.62
2023-04-22T18:53:09.670Z,21.52
2023-04-22T18:55:36.237Z,21.53
2023-04-22T18:58:02.830Z,21.44
2023-04-22T19:00:29.393Z,21.35
2023-04-22T19:02:56.087Z,21.27
2023-04-22T19:05:22.686Z,21.15
2023-04-22T19:07:49.307Z,21.09
2023-04-22T19:10:15.875Z,20.86
2023-04-22T19:12:42.579Z,20.80
2023-04-22T19:15:09.159Z,20.70
2023-04-22T19:17:35.912Z,20.36
2023-04-22T19:20:02.622Z,20.32
2023-04-22T19:22:29.319Z,20.38
2023-04-22T19:24:55.918Z,20.49
2023-04-22T19:27:22.514Z,20.43
2023-04-22T19:29:49.032Z,20.33
2023-04-22T19:32:15.643Z,20.01
2023-04-22T19:34:42.228Z,19.85
2023-04-22T19:37:08.822Z,19.95
2023-04-22T19:39:35.404Z,19.84
2023-04-22T19:42:02.459Z,19.62
2023-04-22T19:44:29.008Z,19.62
2023-04-22T19:46:55.630Z,19.41
2023-04-22T19:49:22.252Z,19.38
2023-04-22T19:51:48.917Z,19.37
2023-04-22T19:54:15.489Z,19.37
2023-04-22T19:56:42.079Z,19.33
2023-04-22T19:59:08.655Z,19.07
2023-04-22T20:01:35.317Z,19.19
2023-04-22T20:04:01.939Z,19.31
2023-04-22T20:06:28.612Z,19.43
2023-04-22T20:08:55.255Z,18.98
2023-04-22T20:11:23.897Z,18.94
2023-04-22T20:13:50.477Z,18.84
2023-04-22T20:16:17.128Z,18.63
2023-04-22T20:18:43.804Z,18.61
2023-04-22T20:21:10.420Z,18.70
2023-04-22T20:23:37.101Z,18.82
2023-04-22T20:26:03.697Z,18.67
2023-04-22T20:28:30.297Z,18.65
2023-04-22T20:30:56.849Z,18.60
2023-04-22T20:33:23.587Z,18.56
2023-04-22T20:35:50.386Z,18.48
2023-04-22T20:38:16.950Z,18.27
2023-04-22T20:40:43.559Z,18.34
2023-04-22T20:43:10.112Z,18.32
2023-04-22T20:45:36.711Z,18.27
2023-04-22T20:48:03.414Z,18.26
2023-04-22T20:50:30.076Z,18.29
2023-04-22T20:52:56.714Z,18.20
2023-04-22T20:55:23.296Z,18.24
2023-04-22T20:57:49.957Z,18.13
2023-04-22T21:00:16.559Z,18.07
2023-04-22T21:02:43.275Z,18.01
2023-04-22T21:05:09.949Z,18.08
2023-04-22T21:07:36.606Z,17.83
2023-04-22T21:10:03.192Z,17.54
2023-04-22T21:12:29.896Z,17.67
2023-04-22T21:14:56.452Z,17.62
2023-04-22T21:17:23.210Z,17.72
2023-04-22T21:19:49.983Z,17.64
2023-04-22T21:22:16.551Z,17.45
2023-04-22T21:24:43.532Z,17.39
2023-04-22T21:27:10.255Z,17.40
2023-04-22T21:29:36.898Z,17.40
2023-04-22T21:32:09.342Z,17.31
2023-04-22T21:34:36.697Z,17.24
2023-04-22T21:37:03.277Z,17.34
2023-04-22T21:39:29.928Z,17.32
2023-04-22T21:41:57.559Z,17.23
2023-04-22T21:44:24.214Z,17.16
2023-04-22T21:46:50.794Z,17.13
2023-04-22T21:49:17.381Z,16.95
2023-04-22T21:51:43.971Z,16.58
2023-04-22T21:54:10.601Z,16.49
2023-04-22T21:56:37.161Z,16.64
2023-04-22T21:59:03.745Z,16.82
2023-04-22T22:01:30.423Z,16.62
2023-04-22T22:03:57.381Z,16.69
2023-04-22T22:06:24.164Z,16.84
2023-04-22T22:08:50.792Z,16.90
2023-04-22T22:11:27.555Z,16.64
2023-04-22T22:13:57.207Z,16.43
2023-04-22T22:16:23.917Z,16.46
2023-04-22T22:18:50.522Z,16.50
2023-04-22T22:21:17.151Z,16.59
2023-04-22T22:23:43.755Z,16.66
2023-04-22T22:26:10.473Z,16.69
2023-04-22T22:28:38.107Z,16.72
2023-04-22T22:31:04.757Z,16.75
2023-04-22T22:33:31.387Z,16.30
2023-04-22T22:35:58.090Z,16.12
2023-04-22T22:38:24.732Z,16.10
2023-04-22T22:40:51.313Z,15.90
2023-04-22T22:43:17.873Z,15.98
2023-04-22T22:45:44.631Z,16.24
2023-04-22T22:48:11.254Z,16.48
2023-04-22T22:50:37.977Z,16.44
2023-04-22T22:53:04.580Z,16.41
2023-04-22T22:55:31.151Z,16.24
2023-04-22T22:57:57.924Z,16.11
2023-04-22T23:00:24.560Z,16.09
2023-04-22T23:02:51.319Z,16.15
2023-04-22T23:05:18.162Z,15.94
2023-04-22T23:07:44.749Z,15.93
2023-04-22T23:10:11.336Z,15.97
2023-04-22T23:12:38.083Z,16.02
2023-04-22T23:15:04.687Z,15.73
2023-04-22T23:17:31.277Z,15.71
2023-04-22T23:19:57.887Z,15.68
2023-04-22T23:22:24.475Z,15.64
2023-04-22T23:24:51.068Z,15.75
2023-04-22T23:27:17.659Z,15.72
2023-04-22T23:29:44.313Z,15.74
2023-04-22T23:32:10.922Z,15.80
2023-04-22T23:34:37.518Z,15.75
2023-04-22T23:37:04.111Z,15.73
2023-04-22T23:39:30.671Z,15.61
2023-04-22T23:41:57.287Z,15.60
2023-04-22T23:44:23.838Z,15.49
2023-04-22T23:46:50.462Z,15.37
2023-04-22T23:49:17.093Z,15.25
2023-04-22T23:51:43.729Z,15.39
2023-04-22T23:54:10.320Z,15.15
2023-04-22T23:56:36.890Z,15.01
2023-04-22T23:59:03.511Z,15.03
